sensor_id;sensor_type;location;lat;lon;timestamp;pressure;altitude;pressure_sealevel;temperature;humidity
49709;BME280;35601;55.902;13.606;2023-06-10T00:00:21;101512.16;;;8.70;46.93
49709;BME280;35601;55.902;13.606;2023-06-10T00:02:45;101507.47;;;8.86;46.95
49709;BME280;35601;55.902;13.606;2023-06-10T00:05:12;101507.88;;;8.76;47.11
49709;BME280;35601;55.902;13.606;2023-06-10T00:07:36;101514.01;;;8.77;47.39
49709;BME280;35601;55.902;13.606;2023-06-10T00:10:01;101516.49;;;8.52;47.80
49709;BME280;35601;55.902;13.606;2023-06-10T00:12:26;101508.20;;;8.77;47.62
49709;BME280;35601;55.902;13.606;2023-06-10T00:14:53;101505.69;;;8.66;47.87
49709;BME280;35601;55.902;13.606;2023-06-10T00:17:18;101503.07;;;8.74;47.84
49709;BME280;35601;55.902;13.606;2023-06-10T00:19:43;101506.52;;;8.69;47.89
49709;BME280;35601;55.902;13.606;2023-06-10T00:22:07;101505.93;;;8.67;47.41
49709;BME280;35601;55.902;13.606;2023-06-10T00:24:33;101508.54;;;9.01;47.27
49709;BME280;35601;55.902;13.606;2023-06-10T00:26:58;101506.24;;;9.10;47.41
49709;BME280;35601;55.902;13.606;2023-06-10T00:29:23;101507.75;;;8.81;47.76
49709;BME280;35601;55.902;13.606;2023-06-10T00:31:49;101510.06;;;8.49;48.74
49709;BME280;35601;55.902;13.606;2023-06-10T00:34:14;101509.89;;;8.81;48.65
49709;BME280;35601;55.902;13.606;2023-06-10T00:36:39;101509.72;;;8.54;49.07
49709;BME280;35601;55.902;13.606;2023-06-10T00:39:06;101508.23;;;8.79;49.48
49709;BME280;35601;55.902;13.606;2023-06-10T00:41:30;101514.78;;;8.50;49.82
49709;BME280;35601;55.902;13.606;2023-06-10T00:43:56;101512.90;;;7.99;51.19
49709;BME280;35601;55.902;13.606;2023-06-10T00:46:21;101522.48;;;8.47;51.12
49709;BME280;35601;55.902;13.606;2023-06-10T00:48:47;101525.36;;;8.63;51.57
49709;BME280;35601;55.902;13.606;2023-06-10T00:51:12;101523.12;;;8.76;51.49
49709;BME280;35601;55.902;13.606;2023-06-10T00:53:37;101524.17;;;8.39;51.29
49709;BME280;35601;55.902;13.606;2023-06-10T00:56:03;101532.13;;;8.50;50.88
49709;BME280;35601;55.902;13.606;2023-06-10T00:58:28;101532.52;;;8.65;50.62
49709;BME280;35601;55.902;13.606;2023-06-10T01:00:52;101532.95;;;8.29;51.27
49709;BME280;35601;55.902;13.606;2023-06-10T01:03:19;101536.32;;;8.13;51.39
49709;BME280;35601;55.902;13.606;2023-06-10T01:05:45;101541.70;;;8.78;51.11
49709;BME280;35601;55.902;13.606;2023-06-10T01:08:14;101543.27;;;8.62;51.90
49709;BME280;35601;55.902;13.606;2023-06-10T01:10:38;101540.54;;;8.35;51.99
49709;BME280;35601;55.902;13.606;2023-06-10T01:13:00;101543.03;;;8.72;52.09
49709;BME280;35601;55.902;13.606;2023-06-10T01:15:25;101540.63;;;8.64;52.31
49709;BME280;35601;55.902;13.606;2023-06-10T01:17:56;101539.51;;;8.01;53.64
49709;BME280;35601;55.902;13.606;2023-06-10T01:20:16;101536.85;;;8.29;53.63
49709;BME280;35601;55.902;13.606;2023-06-10T01:22:40;101538.97;;;8.42;53.54
49709;BME280;35601;55.902;13.606;2023-06-10T01:25:05;101536.94;;;8.19;53.71
49709;BME280;35601;55.902;13.606;2023-06-10T01:27:33;101539.48;;;8.12;54.03
49709;BME280;35601;55.902;13.606;2023-06-10T01:30:02;101539.77;;;7.86;55.71
49709;BME280;35601;55.902;13.606;2023-06-10T01:32:25;101544.13;;;7.89;56.02
49709;BME280;35601;55.902;13.606;2023-06-10T01:34:47;101545.51;;;7.54;56.98
49709;BME280;35601;55.902;13.606;2023-06-10T01:37:13;101541.04;;;7.70;57.15
49709;BME280;35601;55.902;13.606;2023-06-10T01:39:39;101541.58;;;8.04;57.04
49709;BME280;35601;55.902;13.606;2023-06-10T01:42:04;101545.09;;;8.04;56.56
49709;BME280;35601;55.902;13.606;2023-06-10T01:44:27;101542.96;;;7.87;57.21
49709;BME280;35601;55.902;13.606;2023-06-10T01:46:53;101538.44;;;8.01;57.12
49709;BME280;35601;55.902;13.606;2023-06-10T01:49:19;101543.49;;;7.89;58.26
49709;BME280;35601;55.902;13.606;2023-06-10T01:51:43;101542.86;;;7.91;58.22
49709;BME280;35601;55.902;13.606;2023-06-10T01:54:09;101545.70;;;8.04;58.13
49709;BME280;35601;55.902;13.606;2023-06-10T01:56:36;101543.96;;;7.81;58.88
49709;BME280;35601;55.902;13.606;2023-06-10T01:58:59;101544.54;;;7.92;58.75
49709;BME280;35601;55.902;13.606;2023-06-10T02:01:26;101544.72;;;7.90;59.06
49709;BME280;35601;55.902;13.606;2023-06-10T02:03:50;101550.33;;;7.98;59.15
49709;BME280;35601;55.902;13.606;2023-06-10T02:06:15;101547.84;;;7.92;58.68
49709;BME280;35601;55.902;13.606;2023-06-10T02:08:42;101549.60;;;7.58;59.08
49709;BME280;35601;55.902;13.606;2023-06-10T02:11:07;101552.53;;;8.29;58.61
49709;BME280;35601;55.902;13.606;2023-06-10T02:13:31;101560.61;;;7.86;58.48
49709;BME280;35601;55.902;13.606;2023-06-10T02:15:58;101559.46;;;7.74;59.79
49709;BME280;35601;55.902;13.606;2023-06-10T02:18:23;101561.10;;;7.83;59.77
49709;BME280;35601;55.902;13.606;2023-06-10T02:20:47;101559.35;;;8.08;60.05
49709;BME280;35601;55.902;13.606;2023-06-10T02:23:12;101560.56;;;7.78;60.38
49709;BME280;35601;55.902;13.606;2023-06-10T02:25:39;101564.06;;;7.51;61.30
49709;BME280;35601;55.902;13.606;2023-06-10T02:28:03;101566.11;;;8.01;61.03
49709;BME280;35601;55.902;13.606;2023-06-10T02:30:29;101561.34;;;8.00;60.98
49709;BME280;35601;55.902;13.606;2023-06-10T02:32:54;101563.07;;;7.72;61.22
49709;BME280;35601;55.902;13.606;2023-06-10T02:35:19;101564.38;;;7.76;61.30
49709;BME280;35601;55.902;13.606;2023-06-10T02:37:44;101560.39;;;7.69;60.99
49709;BME280;35601;55.902;13.606;2023-06-10T02:40:11;101562.63;;;7.87;61.21
49709;BME280;35601;55.902;13.606;2023-06-10T02:42:34;101562.20;;;7.47;62.28
49709;BME280;35601;55.902;13.606;2023-06-10T02:45:00;101566.03;;;7.60;62.22
49709;BME280;35601;55.902;13.606;2023-06-10T02:47:25;101566.35;;;7.46;62.09
49709;BME280;35601;55.902;13.606;2023-06-10T02:49:52;101566.41;;;7.84;62.00
49709;BME280;35601;55.902;13.606;2023-06-10T02:52:16;101568.19;;;7.80;62.04
49709;BME280;35601;55.902;13.606;2023-06-10T02:54:42;101569.22;;;7.57;62.33
49709;BME280;35601;55.902;13.606;2023-06-10T02:57:06;101570.37;;;7.85;62.24
49709;BME280;35601;55.902;13.606;2023-06-10T02:59:31;101570.61;;;7.68;62.82
49709;BME280;35601;55.902;13.606;2023-06-10T03:01:57;101571.99;;;7.90;62.37
49709;BME280;35601;55.902;13.606;2023-06-10T03:04:24;101569.00;;;8.00;62.23
49709;BME280;35601;55.902;13.606;2023-06-10T03:06:48;101570.65;;;8.12;62.06
49709;BME280;35601;55.902;13.606;2023-06-10T03:09:13;101572.87;;;8.22;61.80
49709;BME280;35601;55.902;13.606;2023-06-10T03:11:39;101570.74;;;7.94;61.96
49709;BME280;35601;55.902;13.606;2023-06-10T03:14:04;101570.76;;;7.79;62.44
49709;BME280;35601;55.902;13.606;2023-06-10T03:16:29;101574.97;;;7.90;62.18
49709;BME280;35601;55.902;13.606;2023-06-10T03:18:54;101575.96;;;7.80;63.35
49709;BME280;35601;55.902;13.606;2023-06-10T03:21:20;101579.31;;;8.01;62.79
49709;BME280;35601;55.902;13.606;2023-06-10T03:23:45;101579.40;;;8.12;62.58
49709;BME280;35601;55.902;13.606;2023-06-10T03:26:11;101577.93;;;8.08;63.20
49709;BME280;35601;55.902;13.606;2023-06-10T03:28:36;101577.48;;;8.03;62.98
49709;BME280;35601;55.902;13.606;2023-06-10T03:31:01;101567.73;;;8.35;62.82
49709;BME280;35601;55.902;13.606;2023-06-10T03:33:26;101572.96;;;8.31;61.57
49709;BME280;35601;55.902;13.606;2023-06-10T03:35:52;101570.16;;;8.28;62.24
49709;BME280;35601;55.902;13.606;2023-06-10T03:38:17;101568.50;;;8.63;61.59
49709;BME280;35601;55.902;13.606;2023-06-10T03:40:42;101568.00;;;8.60;61.00
49709;BME280;35601;55.902;13.606;2023-06-10T03:43:07;101569.49;;;8.86;60.80
49709;BME280;35601;55.902;13.606;2023-06-10T03:45:33;101569.23;;;8.49;60.60
49709;BME280;35601;55.902;13.606;2023-06-10T03:47:58;101563.08;;;8.76;60.64
49709;BME280;35601;55.902;13.606;2023-06-10T03:50:23;101563.30;;;8.64;60.81
49709;BME280;35601;55.902;13.606;2023-06-10T03:52:49;101563.11;;;9.22;60.25
49709;BME280;35601;55.902;13.606;2023-06-10T03:55:14;101556.59;;;9.29;59.72
49709;BME280;35601;55.902;13.606;2023-06-10T03:57:39;101561.32;;;9.11;60.86
49709;BME280;35601;55.902;13.606;2023-06-10T04:00:07;101561.86;;;9.16;59.88
49709;BME280;35601;55.902;13.606;2023-06-10T04:02:30;101563.18;;;9.53;59.41
49709;BME280;35601;55.902;13.606;2023-06-10T04:04:55;101563.87;;;8.76;58.92
49709;BME280;35601;55.902;13.606;2023-06-10T04:07:20;101563.28;;;10.18;57.75
49709;BME280;35601;55.902;13.606;2023-06-10T04:09:46;101555.11;;;10.33;56.93
49709;BME280;35601;55.902;13.606;2023-06-10T04:12:11;101553.56;;;9.94;58.01
49709;BME280;35601;55.902;13.606;2023-06-10T04:14:36;101558.78;;;10.04;58.03
49709;BME280;35601;55.902;13.606;2023-06-10T04:17:01;101557.61;;;10.09;57.83
49709;BME280;35601;55.902;13.606;2023-06-10T04:19:27;101560.31;;;9.65;59.52
49709;BME280;35601;55.902;13.606;2023-06-10T04:21:52;101559.72;;;9.97;58.91
49709;BME280;35601;55.902;13.606;2023-06-10T04:24:18;101557.44;;;9.68;59.20
49709;BME280;35601;55.902;13.606;2023-06-10T04:26:43;101558.80;;;9.84;59.02
49709;BME280;35601;55.902;13.606;2023-06-10T04:29:08;101561.80;;;9.94;59.69
49709;BME280;35601;55.902;13.606;2023-06-10T04:31:33;101565.66;;;9.75;59.71
49709;BME280;35601;55.902;13.606;2023-06-10T04:33:59;101568.42;;;10.05;59.52
49709;BME280;35601;55.902;13.606;2023-06-10T04:36:24;101567.16;;;9.92;59.28
49709;BME280;35601;55.902;13.606;2023-06-10T04:38:49;101573.34;;;9.92;60.26
49709;BME280;35601;55.902;13.606;2023-06-10T04:41:14;101569.40;;;10.13;60.51
49709;BME280;35601;55.902;13.606;2023-06-10T04:43:40;101576.69;;;10.72;58.56
49709;BME280;35601;55.902;13.606;2023-06-10T04:46:05;101570.42;;;10.57;57.99
49709;BME280;35601;55.902;13.606;2023-06-10T04:48:30;101572.47;;;10.82;58.47
49709;BME280;35601;55.902;13.606;2023-06-10T04:50:56;101576.98;;;10.95;57.84
49709;BME280;35601;55.902;13.606;2023-06-10T04:53:21;101582.16;;;11.37;56.85
49709;BME280;35601;55.902;13.606;2023-06-10T04:55:46;101580.78;;;10.96;56.79
49709;BME280;35601;55.902;13.606;2023-06-10T04:58:11;101584.30;;;11.19;56.05
49709;BME280;35601;55.902;13.606;2023-06-10T05:00:37;101591.23;;;11.61;54.83
49709;BME280;35601;55.902;13.606;2023-06-10T05:03:02;101587.82;;;11.52;55.81
49709;BME280;35601;55.902;13.606;2023-06-10T05:05:27;101583.87;;;11.31;54.79
49709;BME280;35601;55.902;13.606;2023-06-10T05:07:52;101589.92;;;11.65;54.41
49709;BME280;35601;55.902;13.606;2023-06-10T05:10:18;101593.09;;;12.04;54.55
49709;BME280;35601;55.902;13.606;2023-06-10T05:12:43;101589.52;;;11.75;53.47
49709;BME280;35601;55.902;13.606;2023-06-10T05:15:09;101591.25;;;11.41;54.87
49709;BME280;35601;55.902;13.606;2023-06-10T05:17:33;101593.25;;;11.79;54.23
49709;BME280;35601;55.902;13.606;2023-06-10T05:19:58;101596.24;;;11.60;53.81
49709;BME280;35601;55.902;13.606;2023-06-10T05:22:24;101592.60;;;12.19;53.91
49709;BME280;35601;55.902;13.606;2023-06-10T05:24:49;101591.64;;;12.18;52.69
49709;BME280;35601;55.902;13.606;2023-06-10T05:27:14;101600.59;;;12.68;52.25
49709;BME280;35601;55.902;13.606;2023-06-10T05:29:39;101596.82;;;12.21;52.16
49709;BME280;35601;55.902;13.606;2023-06-10T05:32:06;101594.52;;;12.25;51.59
49709;BME280;35601;55.902;13.606;2023-06-10T05:34:31;101592.64;;;12.68;51.32
49709;BME280;35601;55.902;13.606;2023-06-10T05:36:55;101591.04;;;12.67;50.76
49709;BME280;35601;55.902;13.606;2023-06-10T05:39:20;101587.91;;;12.85;51.19
49709;BME280;35601;55.902;13.606;2023-06-10T05:41:46;101588.56;;;13.31;49.87
49709;BME280;35601;55.902;13.606;2023-06-10T05:44:11;101586.67;;;13.21;48.87
49709;BME280;35601;55.902;13.606;2023-06-10T05:46:36;101588.38;;;13.45;48.24
49709;BME280;35601;55.902;13.606;2023-06-10T05:49:03;101593.34;;;13.34;47.07
49709;BME280;35601;55.902;13.606;2023-06-10T05:51:26;101590.19;;;13.73;47.38
49709;BME280;35601;55.902;13.606;2023-06-10T05:53:52;101590.93;;;14.00;47.36
49709;BME280;35601;55.902;13.606;2023-06-10T05:56:17;101590.16;;;14.03;45.53
49709;BME280;35601;55.902;13.606;2023-06-10T05:58:42;101589.54;;;13.72;45.86
49709;BME280;35601;55.902;13.606;2023-06-10T06:01:07;101588.75;;;13.59;45.59
49709;BME280;35601;55.902;13.606;2023-06-10T06:03:33;101587.42;;;14.13;45.75
49709;BME280;35601;55.902;13.606;2023-06-10T06:05:58;101588.63;;;14.04;44.71
49709;BME280;35601;55.902;13.606;2023-06-10T06:08:23;101584.95;;;13.87;44.94
49709;BME280;35601;55.902;13.606;2023-06-10T06:10:50;101588.24;;;14.13;43.96
49709;BME280;35601;55.902;13.606;2023-06-10T06:13:14;101587.54;;;13.12;43.78
49709;BME280;35601;55.902;13.606;2023-06-10T06:15:39;101587.64;;;14.37;43.13
49709;BME280;35601;55.902;13.606;2023-06-10T06:18:04;101584.67;;;14.93;42.13
49709;BME280;35601;55.902;13.606;2023-06-10T06:20:29;101581.32;;;15.36;42.31
49709;BME280;35601;55.902;13.606;2023-06-10T06:22:55;101588.73;;;15.05;41.92
49709;BME280;35601;55.902;13.606;2023-06-10T06:25:19;101582.36;;;15.06;41.02
49709;BME280;35601;55.902;13.606;2023-06-10T06:27:44;101588.84;;;15.45;41.18
49709;BME280;35601;55.902;13.606;2023-06-10T06:30:11;101585.99;;;14.93;41.51
49709;BME280;35601;55.902;13.606;2023-06-10T06:32:35;101594.47;;;15.12;40.88
49709;BME280;35601;55.902;13.606;2023-06-10T06:35:00;101593.22;;;15.33;40.74
49709;BME280;35601;55.902;13.606;2023-06-10T06:37:25;101594.27;;;15.44;40.83
49709;BME280;35601;55.902;13.606;2023-06-10T06:39:51;101594.12;;;15.31;40.94
49709;BME280;35601;55.902;13.606;2023-06-10T06:42:16;101593.52;;;15.38;40.70
49709;BME280;35601;55.902;13.606;2023-06-10T06:44:41;101595.61;;;15.19;40.51
49709;BME280;35601;55.902;13.606;2023-06-10T06:47:07;101596.55;;;15.28;40.45
49709;BME280;35601;55.902;13.606;2023-06-10T06:49:31;101595.25;;;15.02;41.58
49709;BME280;35601;55.902;13.606;2023-06-10T06:51:56;101594.87;;;15.98;41.34
49709;BME280;35601;55.902;13.606;2023-06-10T06:54:22;101600.22;;;15.93;41.22
49709;BME280;35601;55.902;13.606;2023-06-10T06:56:50;101603.86;;;15.68;39.49
49709;BME280;35601;55.902;13.606;2023-06-10T06:59:12;101606.35;;;15.72;39.37
49709;BME280;35601;55.902;13.606;2023-06-10T07:01:38;101600.30;;;15.27;39.49
49709;BME280;35601;55.902;13.606;2023-06-10T07:04:03;101601.98;;;16.10;38.96
49709;BME280;35601;55.902;13.606;2023-06-10T07:06:28;101606.52;;;15.90;39.62
49709;BME280;35601;55.902;13.606;2023-06-10T07:08:53;101606.12;;;16.38;38.23
49709;BME280;35601;55.902;13.606;2023-06-10T07:11:20;101608.67;;;16.66;37.85
49709;BME280;35601;55.902;13.606;2023-06-10T07:13:44;101606.49;;;16.44;37.76
49709;BME280;35601;55.902;13.606;2023-06-10T07:16:09;101610.09;;;16.01;37.26
49709;BME280;35601;55.902;13.606;2023-06-10T07:18:34;101615.13;;;15.95;38.56
49709;BME280;35601;55.902;13.606;2023-06-10T07:20:59;101615.44;;;16.70;37.06
49709;BME280;35601;55.902;13.606;2023-06-10T07:23:25;101616.33;;;16.86;37.07
49709;BME280;35601;55.902;13.606;2023-06-10T07:25:50;101620.67;;;16.70;36.53
49709;BME280;35601;55.902;13.606;2023-06-10T07:28:15;101625.22;;;16.40;36.01
49709;BME280;35601;55.902;13.606;2023-06-10T07:30:41;101621.03;;;16.81;36.44
49709;BME280;35601;55.902;13.606;2023-06-10T07:33:06;101621.41;;;16.88;35.54
49709;BME280;35601;55.902;13.606;2023-06-10T07:35:31;101614.52;;;16.42;35.81
49709;BME280;35601;55.902;13.606;2023-06-10T07:37:56;101622.48;;;16.66;35.15
49709;BME280;35601;55.902;13.606;2023-06-10T07:40:21;101621.09;;;17.08;35.03
49709;BME280;35601;55.902;13.606;2023-06-10T07:42:46;101629.76;;;16.37;35.96
49709;BME280;35601;55.902;13.606;2023-06-10T07:45:12;101625.12;;;16.12;36.61
49709;BME280;35601;55.902;13.606;2023-06-10T07:47:37;101618.72;;;16.26;36.57
49709;BME280;35601;55.902;13.606;2023-06-10T07:50:02;101626.89;;;16.56;37.03
49709;BME280;35601;55.902;13.606;2023-06-10T07:52:27;101619.21;;;16.80;36.51
49709;BME280;35601;55.902;13.606;2023-06-10T07:54:53;101622.11;;;17.04;35.75
49709;BME280;35601;55.902;13.606;2023-06-10T07:57:19;101625.35;;;17.08;36.19
49709;BME280;35601;55.902;13.606;2023-06-10T07:59:43;101625.77;;;16.94;35.44
49709;BME280;35601;55.902;13.606;2023-06-10T08:02:08;101617.43;;;17.58;35.51
49709;BME280;35601;55.902;13.606;2023-06-10T08:04:33;101615.10;;;17.98;36.13
49709;BME280;35601;55.902;13.606;2023-06-10T08:06:59;101617.09;;;17.91;34.18
49709;BME280;35601;55.902;13.606;2023-06-10T08:09:24;101612.42;;;18.69;33.71
49709;BME280;35601;55.902;13.606;2023-06-10T08:11:50;101628.69;;;18.48;33.39
49709;BME280;35601;55.902;13.606;2023-06-10T08:14:15;101619.83;;;18.06;33.28
49709;BME280;35601;55.902;13.606;2023-06-10T08:16:39;101624.56;;;18.49;33.37
49709;BME280;35601;55.902;13.606;2023-06-10T08:19:05;101622.95;;;18.50;33.19
49709;BME280;35601;55.902;13.606;2023-06-10T08:21:30;101628.68;;;18.13;34.00
49709;BME280;35601;55.902;13.606;2023-06-10T08:23:55;101625.39;;;18.71;32.67
49709;BME280;35601;55.902;13.606;2023-06-10T08:26:20;101620.49;;;18.04;32.77
49709;BME280;35601;55.902;13.606;2023-06-10T08:28:45;101620.53;;;17.74;32.63
49709;BME280;35601;55.902;13.606;2023-06-10T08:31:12;101628.06;;;17.89;33.02
49709;BME280;35601;55.902;13.606;2023-06-10T08:33:35;101625.19;;;17.71;33.01
49709;BME280;35601;55.902;13.606;2023-06-10T08:36:01;101630.95;;;18.66;32.32
49709;BME280;35601;55.902;13.606;2023-06-10T08:38:26;101617.79;;;18.26;33.26
49709;BME280;35601;55.902;13.606;2023-06-10T08:40:56;101619.67;;;18.02;32.93
49709;BME280;35601;55.902;13.606;2023-06-10T08:43:22;101618.05;;;18.85;33.23
49709;BME280;35601;55.902;13.606;2023-06-10T08:45:47;101624.09;;;18.41;32.57
49709;BME280;35601;55.902;13.606;2023-06-10T08:48:10;101613.69;;;18.34;32.56
49709;BME280;35601;55.902;13.606;2023-06-10T08:50:35;101618.03;;;18.93;32.71
49709;BME280;35601;55.902;13.606;2023-06-10T08:52:59;101615.83;;;19.85;32.16
49709;BME280;35601;55.902;13.606;2023-06-10T08:55:29;101619.24;;;19.29;30.61
49709;BME280;35601;55.902;13.606;2023-06-10T08:57:50;101616.51;;;19.45;30.25
49709;BME280;35601;55.902;13.606;2023-06-10T09:00:16;101621.85;;;18.79;30.79
49709;BME280;35601;55.902;13.606;2023-06-10T09:02:42;101616.61;;;18.71;30.90
49709;BME280;35601;55.902;13.606;2023-06-10T09:05:07;101625.99;;;18.91;31.05
49709;BME280;35601;55.902;13.606;2023-06-10T09:07:30;101624.88;;;19.44;31.32
49709;BME280;35601;55.902;13.606;2023-06-10T09:09:56;101618.01;;;19.82;30.60
49709;BME280;35601;55.902;13.606;2023-06-10T09:12:20;101627.80;;;18.70;31.53
49709;BME280;35601;55.902;13.606;2023-06-10T09:14:46;101630.79;;;19.29;30.90
49709;BME280;35601;55.902;13.606;2023-06-10T09:17:11;101631.20;;;19.15;30.27
49709;BME280;35601;55.902;13.606;2023-06-10T09:19:36;101631.50;;;18.98;30.73
49709;BME280;35601;55.902;13.606;2023-06-10T09:22:01;101645.25;;;19.49;29.57
49709;BME280;35601;55.902;13.606;2023-06-10T09:24:26;101640.66;;;18.55;30.05
49709;BME280;35601;55.902;13.606;2023-06-10T09:29:17;101639.46;;;18.32;30.10
49709;BME280;35601;55.902;13.606;2023-06-10T09:31:41;101635.65;;;18.68;31.02
49709;BME280;35601;55.902;13.606;2023-06-10T09:34:08;101654.05;;;18.79;30.52
49709;BME280;35601;55.902;13.606;2023-06-10T09:36:33;101642.53;;;18.35;30.92
49709;BME280;35601;55.902;13.606;2023-06-10T09:38:57;101636.38;;;18.62;30.84
49709;BME280;35601;55.902;13.606;2023-06-10T09:41:22;101631.77;;;18.60;31.93
49709;BME280;35601;55.902;13.606;2023-06-10T09:43:47;101631.90;;;19.34;31.26
49709;BME280;35601;55.902;13.606;2023-06-10T09:46:16;101639.04;;;19.54;31.11
49709;BME280;35601;55.902;13.606;2023-06-10T09:48:41;101636.69;;;19.56;32.01
49709;BME280;35601;55.902;13.606;2023-06-10T09:51:09;101642.31;;;20.02;31.66
49709;BME280;35601;55.902;13.606;2023-06-10T09:53:33;101629.66;;;19.95;31.76
49709;BME280;35601;55.902;13.606;2023-06-10T09:55:53;101636.84;;;20.24;31.88
49709;BME280;35601;55.902;13.606;2023-06-10T09:58:18;101640.72;;;20.05;31.89
49709;BME280;35601;55.902;13.606;2023-06-10T10:00:43;101646.09;;;20.41;32.19
49709;BME280;35601;55.902;13.606;2023-06-10T10:03:10;101638.86;;;20.62;31.28
49709;BME280;35601;55.902;13.606;2023-06-10T10:05:33;101644.11;;;20.41;30.98
49709;BME280;35601;55.902;13.606;2023-06-10T10:07:58;101641.93;;;20.11;31.62
49709;BME280;35601;55.902;13.606;2023-06-10T10:10:24;101647.28;;;20.69;31.61
49709;BME280;35601;55.902;13.606;2023-06-10T10:12:54;101657.33;;;20.72;31.30
49709;BME280;35601;55.902;13.606;2023-06-10T10:15:16;101662.19;;;19.83;30.57
49709;BME280;35601;55.902;13.606;2023-06-10T10:17:41;101661.44;;;19.72;31.65
49709;BME280;35601;55.902;13.606;2023-06-10T10:20:05;101661.47;;;19.67;31.74
49709;BME280;35601;55.902;13.606;2023-06-10T10:22:31;101663.46;;;19.62;31.74
49709;BME280;35601;55.902;13.606;2023-06-10T10:24:57;101666.77;;;19.27;32.79
49709;BME280;35601;55.902;13.606;2023-06-10T10:27:27;101663.46;;;19.55;33.02
49709;BME280;35601;55.902;13.606;2023-06-10T10:29:47;101660.85;;;19.35;32.70
49709;BME280;35601;55.902;13.606;2023-06-10T10:32:12;101662.42;;;19.80;33.54
49709;BME280;35601;55.902;13.606;2023-06-10T10:34:43;101658.82;;;19.90;31.62
49709;BME280;35601;55.902;13.606;2023-06-10T10:37:02;101652.91;;;20.11;30.92
49709;BME280;35601;55.902;13.606;2023-06-10T10:39:27;101654.80;;;20.90;30.17
49709;BME280;35601;55.902;13.606;2023-06-10T10:41:51;101661.14;;;20.50;29.97
49709;BME280;35601;55.902;13.606;2023-06-10T10:44:16;101655.06;;;20.81;27.89
49709;BME280;35601;55.902;13.606;2023-06-10T10:46:43;101650.65;;;19.93;28.62
49709;BME280;35601;55.902;13.606;2023-06-10T10:49:09;101659.97;;;20.47;29.01
49709;BME280;35601;55.902;13.606;2023-06-10T10:51:34;101660.17;;;20.56;28.36
49709;BME280;35601;55.902;13.606;2023-06-10T10:54:11;101665.62;;;21.30;28.68
49709;BME280;35601;55.902;13.606;2023-06-10T10:56:27;101665.15;;;21.50;27.68
49709;BME280;35601;55.902;13.606;2023-06-10T11:01:14;101676.89;;;21.35;27.18
49709;BME280;35601;55.902;13.606;2023-06-10T11:03:43;101683.58;;;20.48;28.69
49709;BME280;35601;55.902;13.606;2023-06-10T11:06:11;101682.62;;;19.62;29.18
49709;BME280;35601;55.902;13.606;2023-06-10T11:08:46;101675.18;;;19.71;29.82
49709;BME280;35601;55.902;13.606;2023-06-10T11:10:53;101690.21;;;19.55;29.96
49709;BME280;35601;55.902;13.606;2023-06-10T11:13:21;101685.85;;;19.24;30.06
49709;BME280;35601;55.902;13.606;2023-06-10T11:15:45;101684.60;;;19.09;30.70
49709;BME280;35601;55.902;13.606;2023-06-10T11:18:11;101696.19;;;19.20;30.88
49709;BME280;35601;55.902;13.606;2023-06-10T11:20:44;101691.61;;;19.58;31.30
49709;BME280;35601;55.902;13.606;2023-06-10T11:23:01;101688.34;;;20.08;31.11
49709;BME280;35601;55.902;13.606;2023-06-10T11:27:51;101692.41;;;19.80;31.28
49709;BME280;35601;55.902;13.606;2023-06-10T11:30:19;101682.21;;;20.47;30.29
49709;BME280;35601;55.902;13.606;2023-06-10T11:32:41;101689.61;;;20.69;29.22
49709;BME280;35601;55.902;13.606;2023-06-10T11:35:07;101689.67;;;20.16;29.53
49709;BME280;35601;55.902;13.606;2023-06-10T11:37:30;101686.53;;;20.62;28.65
49709;BME280;35601;55.902;13.606;2023-06-10T11:39:55;101693.97;;;21.04;28.88
49709;BME280;35601;55.902;13.606;2023-06-10T11:42:21;101689.69;;;20.77;28.41
49709;BME280;35601;55.902;13.606;2023-06-10T11:44:50;101680.80;;;20.65;28.81
49709;BME280;35601;55.902;13.606;2023-06-10T11:47:11;101688.89;;;20.26;28.82
49709;BME280;35601;55.902;13.606;2023-06-10T11:49:36;101686.53;;;20.49;29.14
49709;BME280;35601;55.902;13.606;2023-06-10T11:52:04;101698.50;;;19.91;28.91
49709;BME280;35601;55.902;13.606;2023-06-10T11:54:26;101687.29;;;20.41;28.63
49709;BME280;35601;55.902;13.606;2023-06-10T11:56:57;101691.28;;;20.68;28.46
49709;BME280;35601;55.902;13.606;2023-06-10T11:59:16;101691.91;;;20.98;27.86
49709;BME280;35601;55.902;13.606;2023-06-10T12:01:43;101690.68;;;20.83;28.51
49709;BME280;35601;55.902;13.606;2023-06-10T12:04:09;101683.23;;;21.23;27.61
49709;BME280;35601;55.902;13.606;2023-06-10T12:06:38;101692.85;;;21.36;28.36
49709;BME280;35601;55.902;13.606;2023-06-10T12:08:57;101694.42;;;21.55;27.35
49709;BME280;35601;55.902;13.606;2023-06-10T12:11:22;101685.75;;;21.75;26.80
49709;BME280;35601;55.902;13.606;2023-06-10T12:13:49;101698.82;;;21.23;26.61
49709;BME280;35601;55.902;13.606;2023-06-10T12:16:13;101689.89;;;20.80;27.43
49709;BME280;35601;55.902;13.606;2023-06-10T12:18:37;101695.73;;;20.55;27.73
49709;BME280;35601;55.902;13.606;2023-06-10T12:21:02;101698.64;;;20.96;26.42
49709;BME280;35601;55.902;13.606;2023-06-10T12:23:27;101700.86;;;20.73;26.95
49709;BME280;35601;55.902;13.606;2023-06-10T12:25:54;101685.15;;;20.47;25.79
49709;BME280;35601;55.902;13.606;2023-06-10T12:28:21;101689.22;;;20.82;26.24
49709;BME280;35601;55.902;13.606;2023-06-10T12:30:43;101695.34;;;20.38;26.29
49709;BME280;35601;55.902;13.606;2023-06-10T12:33:15;101690.11;;;21.17;26.71
49709;BME280;35601;55.902;13.606;2023-06-10T12:35:33;101684.50;;;21.28;25.97
49709;BME280;35601;55.902;13.606;2023-06-10T12:38:00;101684.31;;;21.73;26.55